Time;durP1;ratioP1;P1;durP2;ratioP2;P2;SDS_P1;SDS_P2;PMS_P1;PMS_P2;Temp;Humidity;BMP_temperature;BMP_pressure;BME280_temperature;BME280_humidity;BME280_pressure;Samples;Min_cycle;Max_cycle;Signal;HPM_P1;HPM_P2
2022/12/28 00:01:28;;;;;;;6.83;3.13;;;;;;;13.03;60.28;99920.53;6015139;23;20163;-88
2022/12/28 00:04:05;;;;;;;7.97;3.67;;;;;;;12.93;60.10;99933.31;6040579;23;20143;-89
2022/12/28 00:06:35;;;;;;;6.43;3.50;;;;;;;12.98;59.89;99924.34;6015226;23;20172;-89
2022/12/28 00:09:05;;;;;;;11.40;3.90;;;;;;;13.08;59.63;99928.25;6041145;23;20192;-90
2022/12/28 00:11:34;;;;;;;7.40;3.17;;;;;;;13.37;58.33;99936.38;6014834;23;20183;-89
2022/12/28 00:14:00;;;;;;;7.53;3.10;;;;;;;13.54;57.69;99938.16;6039048;23;20160;-89
2022/12/28 00:16:43;;;;;;;9.30;3.50;;;;;;;13.47;57.71;99940.22;6015461;23;20168;-90
2022/12/28 00:19:14;;;;;;;10.30;3.57;;;;;;;13.39;57.55;99945.03;6016289;23;20154;-89
2022/12/28 00:21:47;;;;;;;11.83;4.53;;;;;;;13.49;57.74;99948.06;6015831;23;20156;-90
2022/12/28 00:24:24;;;;;;;9.10;4.50;;;;;;;13.49;57.54;99955.97;6040889;23;20539;-89
2022/12/28 00:26:55;;;;;;;10.93;4.80;;;;;;;13.54;57.56;99959.22;6015268;23;20172;-90
2022/12/28 00:29:22;;;;;;;9.37;4.33;;;;;;;13.57;57.16;99960.84;6015036;23;20161;-89
2022/12/28 00:31:51;;;;;;;7.13;3.60;;;;;;;13.56;57.36;99957.34;6040659;23;20690;-89
2022/12/28 00:34:20;;;;;;;8.83;3.50;;;;;;;13.64;56.81;99949.06;6015226;23;20188;-90
2022/12/28 00:36:55;;;;;;;6.83;3.50;;;;;;;13.55;57.15;99956.50;6039904;23;20221;-89
2022/12/28 00:39:28;;;;;;;10.40;4.30;;;;;;;13.50;57.39;99955.03;6040672;23;20163;-89
2022/12/28 00:41:53;;;;;;;6.97;3.63;;;;;;;13.55;57.01;99958.28;6014847;23;20146;-90
2022/12/28 00:44:20;;;;;;;7.73;3.87;;;;;;;13.58;56.88;99955.50;6039566;23;20154;-89
2022/12/28 00:46:52;;;;;;;7.63;3.77;;;;;;;13.51;57.51;99959.38;6039856;23;20157;-89
2022/12/28 00:49:21;;;;;;;6.83;3.57;;;;;;;13.47;57.64;99963.94;6039930;23;20238;-89
2022/12/28 00:51:50;;;;;;;9.70;3.37;;;;;;;13.48;57.59;99967.44;6014995;23;20169;-89
2022/12/28 00:54:21;;;;;;;8.43;3.70;;;;;;;13.36;58.00;99970.69;6014181;23;20241;-90
2022/12/28 00:56:51;;;;;;;9.57;3.63;;;;;;;13.30;58.08;99977.13;6039768;23;20233;-90
2022/12/28 00:59:22;;;;;;;7.73;3.50;;;;;;;13.34;57.72;99972.53;6015292;23;20176;-90
2022/12/28 01:01:54;;;;;;;11.00;4.33;;;;;;;13.27;57.53;99973.78;6038297;23;20235;-90
2022/12/28 01:04:22;;;;;;;10.63;4.20;;;;;;;13.22;58.21;99979.28;6039790;23;20138;-90
2022/12/28 01:06:49;;;;;;;11.23;4.30;;;;;;;13.19;58.27;99971.53;6039284;23;20168;-90
2022/12/28 01:09:15;;;;;;;9.03;4.43;;;;;;;13.23;57.93;99977.50;6039453;23;20153;-90
2022/12/28 01:11:41;;;;;;;5.30;2.90;;;;;;;13.28;57.97;99962.34;6039266;23;20601;-90
2022/12/28 01:14:07;;;;;;;10.20;3.33;;;;;;;13.26;58.16;99961.56;6039363;23;20215;-89
2022/12/28 01:16:35;;;;;;;5.93;3.00;;;;;;;13.18;58.11;99964.56;6038400;23;20157;-89
2022/12/28 01:19:07;;;;;;;5.33;3.20;;;;;;;13.25;57.80;99957.22;6039321;23;20184;-90
2022/12/28 01:21:36;;;;;;;6.87;3.07;;;;;;;13.20;58.30;99965.34;6015139;23;20249;-89
2022/12/28 01:24:07;;;;;;;9.07;3.63;;;;;;;13.14;58.31;99970.91;6013013;23;20537;-89
2022/12/28 01:26:40;;;;;;;6.93;3.87;;;;;;;13.08;58.57;99965.94;6039513;23;20145;-89
2022/12/28 01:29:06;;;;;;;8.17;3.43;;;;;;;13.09;58.50;99967.66;6014315;23;20161;-89
2022/12/28 01:31:36;;;;;;;9.27;3.37;;;;;;;13.03;58.47;99969.69;6014346;23;20168;-90
2022/12/28 01:34:13;;;;;;;7.70;3.80;;;;;;;13.07;58.93;99971.28;6014271;23;20595;-89
2022/12/28 01:36:40;;;;;;;8.33;3.40;;;;;;;12.82;59.21;99969.81;6039077;23;20134;-89
2022/12/28 01:39:05;;;;;;;8.63;3.13;;;;;;;12.87;59.32;99967.81;6014475;23;20581;-90
2022/12/28 01:41:39;;;;;;;11.40;4.20;;;;;;;12.94;59.28;99974.47;6014855;23;20195;-90
2022/12/28 01:44:09;;;;;;;7.00;3.67;;;;;;;12.99;58.57;99962.88;6014235;23;20165;-90
2022/12/28 01:46:49;;;;;;;7.97;3.50;;;;;;;12.99;58.60;99966.38;6014152;23;20170;-90
2022/12/28 01:49:21;;;;;;;7.83;3.33;;;;;;;12.94;58.60;99976.28;6014622;23;20154;-89
2022/12/28 01:52:04;;;;;;;4.37;2.50;;;;;;;13.03;57.55;99978.44;6039550;23;20145;-90
2022/12/28 01:54:37;;;;;;;5.93;2.70;;;;;;;12.92;57.43;99978.13;6039352;23;20144;-90
2022/12/28 01:57:03;;;;;;;6.27;2.60;;;;;;;12.78;56.21;99973.53;6015005;23;20157;-90
2022/12/28 01:59:32;;;;;;;4.50;2.13;;;;;;;12.75;55.77;99972.81;6014816;23;20163;-90
2022/12/28 02:01:59;;;;;;;3.47;1.60;;;;;;;12.86;55.49;99971.41;6014713;23;20157;-90
2022/12/28 02:04:25;;;;;;;4.53;2.20;;;;;;;12.92;55.14;99978.97;6014670;23;20156;-90
2022/12/28 02:06:54;;;;;;;5.23;2.20;;;;;;;12.98;55.06;99983.09;6039189;23;20158;-89
2022/12/28 02:09:29;;;;;;;18.37;6.33;;;;;;;12.94;54.87;99986.81;6039045;23;20163;-90
2022/12/28 02:11:57;;;;;;;12.33;3.90;;;;;;;12.91;54.71;99979.91;6039338;23;20173;-89
2022/12/28 02:14:23;;;;;;;10.97;2.70;;;;;;;12.93;54.57;99983.31;6039180;23;20151;-89
2022/12/28 02:16:51;;;;;;;10.80;2.80;;;;;;;12.89;55.12;99983.56;6014288;23;20161;-89
2022/12/28 02:19:23;;;;;;;9.30;2.80;;;;;;;13.05;55.02;99981.03;6039280;23;20543;-89
2022/12/28 02:22:26;;;;;;;19.80;8.30;;;;;;;12.93;55.34;99977.19;6015438;23;20484;-89
2022/12/28 02:25:33;;;;;;;14.33;7.73;;;;;;;12.90;55.81;99982.59;6038745;23;20159;-89
2022/12/28 02:28:14;;;;;;;9.00;3.53;;;;;;;12.93;55.94;99978.06;6013376;23;20171;-89
2022/12/28 02:30:50;;;;;;;6.43;3.03;;;;;;;12.93;56.14;99972.78;6014204;23;20596;-89
2022/12/28 02:33:44;;;;;;;7.63;3.00;;;;;;;12.98;55.61;99979.59;6014058;23;20185;-89
2022/12/28 02:36:18;;;;;;;7.93;3.10;;;;;;;13.07;55.32;99985.31;6030185;23;20212;-89
2022/12/28 02:38:54;;;;;;;6.03;2.97;;;;;;;12.96;55.61;99982.31;6014823;23;20153;-89
2022/12/28 02:41:25;;;;;;;6.37;2.70;;;;;;;12.98;55.84;99984.84;6040131;23;20254;-89
2022/12/28 02:43:57;;;;;;;5.50;2.97;;;;;;;13.09;55.18;99977.34;6015973;23;20242;-89
2022/12/28 02:52:22;;;;;;;5.20;1.93;;;;;;;12.98;53.76;99979.59;6040753;23;20183;-90
2022/12/28 02:58:19;;;;;;;3.50;1.80;;;;;;;13.01;52.84;99995.25;5982129;24;20641;-90
2022/12/28 03:00:51;;;;;;;3.73;1.83;;;;;;;13.12;52.21;99998.25;5959965;23;20213;-89
2022/12/28 03:03:40;;;;;;;7.60;2.27;;;;;;;13.00;52.89;100001.44;6041326;23;20593;-90
2022/12/28 03:10:15;;;;;;;5.80;2.70;;;;;;;13.07;52.75;100005.50;5926865;24;20555;-90
2022/12/28 03:16:23;;;;;;;6.93;2.23;;;;;;;12.97;52.48;100010.31;5926344;24;20227;-89
2022/12/28 03:32:56;;;;;;;3.67;2.00;;;;;;;13.06;52.62;100023.06;6040304;23;20182;-89
2022/12/28 03:35:31;;;;;;;6.90;3.20;;;;;;;12.94;52.95;100031.53;6040725;23;20155;-89
2022/12/28 03:38:00;;;;;;;8.43;2.50;;;;;;;12.84;54.12;100033.75;6040596;23;20157;-89
2022/12/28 03:40:48;;;;;;;6.37;2.43;;;;;;;12.57;55.06;100034.19;6040138;23;20161;-89
2022/12/28 03:43:39;;;;;;;5.87;2.37;;;;;;;12.51;54.93;100030.06;6015711;23;20160;-89
2022/12/28 03:46:24;;;;;;;6.90;2.90;;;;;;;12.29;55.57;100037.22;6040153;23;20148;-90
2022/12/28 03:48:51;;;;;;;4.80;2.57;;;;;;;12.08;56.31;100044.28;6015648;23;20579;-89
2022/12/28 03:51:21;;;;;;;5.70;1.83;;;;;;;12.11;56.60;100044.16;6014881;23;20161;-90
2022/12/28 03:53:48;;;;;;;4.40;2.27;;;;;;;12.11;56.62;100033.66;6015808;23;20181;-90
2022/12/28 03:56:20;;;;;;;4.77;2.30;;;;;;;12.11;56.91;100035.41;6016293;23;20169;-89
2022/12/28 03:58:47;;;;;;;6.40;2.53;;;;;;;12.15;56.56;100042.25;6015486;23;20163;-88
2022/12/28 04:01:13;;;;;;;10.17;2.60;;;;;;;12.13;56.51;100038.84;6015507;23;20495;-89
2022/12/28 04:03:43;;;;;;;4.40;2.03;;;;;;;12.17;56.59;100045.66;6014808;23;20178;-88
2022/12/28 04:06:16;;;;;;;4.03;1.87;;;;;;;12.14;56.63;100054.53;6012976;23;20472;-88
2022/12/28 04:08:47;;;;;;;6.00;2.40;;;;;;;12.16;56.64;100059.72;6037871;23;20174;-89
2022/12/28 04:11:15;;;;;;;3.93;1.80;;;;;;;12.14;56.48;100064.19;6037842;23;20171;-88
2022/12/28 04:13:43;;;;;;;5.60;2.03;;;;;;;12.26;55.71;100066.31;6012806;23;20631;-89
2022/12/28 04:16:11;;;;;;;5.20;1.90;;;;;;;12.42;55.00;100071.72;6037965;23;20238;-89
2022/12/28 04:18:37;;;;;;;6.20;2.03;;;;;;;12.44;54.14;100068.09;6038206;23;20150;-89
2022/12/28 04:21:07;;;;;;;3.90;1.67;;;;;;;12.50;53.40;100078.31;6013596;23;20169;-88
2022/12/28 04:23:35;;;;;;;5.03;1.80;;;;;;;12.48;53.68;100074.91;6040645;23;20225;-89
2022/12/28 04:26:15;;;;;;;5.07;2.03;;;;;;;12.44;53.14;100078.63;6015504;23;20162;-89
2022/12/28 04:28:44;;;;;;;5.57;2.20;;;;;;;12.47;52.88;100083.75;6015010;23;20154;-89
2022/12/28 04:31:19;;;;;;;4.33;2.20;;;;;;;12.54;52.04;100085.16;6015632;23;20533;-90
2022/12/28 04:33:47;;;;;;;3.50;1.53;;;;;;;12.58;52.14;100086.72;6015308;23;20182;-89
2022/12/28 04:36:20;;;;;;;4.90;1.67;;;;;;;12.62;51.95;100090.94;6039484;23;20160;-89
2022/12/28 04:38:48;;;;;;;5.30;1.80;;;;;;;12.63;52.14;100086.53;6015118;23;20170;-89
2022/12/28 04:41:18;;;;;;;5.43;1.90;;;;;;;12.73;51.74;100079.91;6014826;23;20556;-89
2022/12/28 04:43:45;;;;;;;4.40;1.70;;;;;;;12.79;51.64;100090.13;6039700;23;20675;-89
2022/12/28 04:46:16;;;;;;;4.97;1.77;;;;;;;12.84;51.29;100083.72;6039663;23;20159;-89
2022/12/28 04:48:45;;;;;;;7.47;3.80;;;;;;;12.86;50.28;100081.91;6014931;23;20156;-89
2022/12/28 04:51:16;;;;;;;10.97;4.83;;;;;;;12.90;49.22;100086.09;6015158;23;20243;-90
2022/12/28 04:53:42;;;;;;;4.47;1.97;;;;;;;12.88;48.45;100081.81;6040389;23;20173;-90
2022/12/28 04:56:13;;;;;;;4.70;1.90;;;;;;;12.97;48.39;100077.91;6015064;23;20487;-90
2022/12/28 04:58:41;;;;;;;4.33;2.03;;;;;;;13.03;48.99;100081.09;6015853;23;20564;-90
2022/12/28 05:01:18;;;;;;;5.13;2.40;;;;;;;13.05;49.18;100071.34;6014835;23;20507;-89
2022/12/28 05:03:52;;;;;;;4.27;1.70;;;;;;;13.08;49.18;100081.75;6039823;23;20132;-88
2022/12/28 05:06:29;;;;;;;2.83;1.47;;;;;;;13.14;47.87;100083.25;6039830;23;20143;-89
2022/12/28 05:08:58;;;;;;;6.57;1.50;;;;;;;13.15;48.14;100077.06;6014696;23;20227;-88
2022/12/28 05:11:45;;;;;;;5.37;2.07;;;;;;;13.24;48.10;100076.59;6014544;23;20184;-89
2022/12/28 05:14:11;;;;;;;3.37;1.43;;;;;;;13.25;48.25;100088.84;6015031;23;20160;-88
2022/12/28 05:16:39;;;;;;;4.07;1.67;;;;;;;13.20;48.69;100086.47;6039623;23;20187;-88
2022/12/28 05:19:09;;;;;;;4.37;1.27;;;;;;;13.13;49.11;100089.47;6039696;23;20157;-90
2022/12/28 05:21:35;;;;;;;3.23;1.80;;;;;;;13.12;49.40;100085.97;6014701;23;20164;-90
2022/12/28 05:24:02;;;;;;;5.43;1.87;;;;;;;13.10;49.63;100089.59;6014937;23;20232;-89
2022/12/28 05:26:28;;;;;;;7.93;2.87;;;;;;;13.07;49.82;100095.88;6014492;23;20695;-89
2022/12/28 05:28:57;;;;;;;6.30;2.97;;;;;;;12.95;50.15;100094.63;6014677;23;20161;-89
2022/12/28 05:31:24;;;;;;;8.80;4.33;;;;;;;12.89;50.53;100100.16;6013779;23;20585;-89
2022/12/28 05:33:56;;;;;;;22.67;5.93;;;;;;;12.83;51.00;100100.47;6014616;23;20184;-89
2022/12/28 05:36:28;;;;;;;13.70;7.63;;;;;;;12.54;52.31;100100.94;6039368;23;20163;-89
2022/12/28 05:38:57;;;;;;;15.87;8.43;;;;;;;12.60;52.62;100113.81;6039664;23;20163;-89
2022/12/28 05:41:26;;;;;;;11.43;5.53;;;;;;;12.53;53.65;100115.00;6039407;23;20180;-90
2022/12/28 05:43:52;;;;;;;11.70;5.23;;;;;;;12.60;53.40;100111.19;6039435;23;20153;-89
2022/12/28 05:46:30;;;;;;;13.40;5.37;;;;;;;12.63;53.87;100116.28;6039416;23;20581;-89
2022/12/28 05:49:09;;;;;;;9.37;5.47;;;;;;;12.69;54.85;100126.53;6013516;23;20179;-89
2022/12/28 05:51:42;;;;;;;14.13;4.77;;;;;;;12.68;54.33;100134.53;6014411;23;20157;-88
2022/12/28 05:54:10;;;;;;;11.67;5.50;;;;;;;12.60;55.21;100131.38;6039359;23;20166;-90
2022/12/28 05:56:42;;;;;;;12.27;5.23;;;;;;;12.59;54.76;100140.19;6039707;23;20568;-88
2022/12/28 05:59:15;;;;;;;13.40;6.10;;;;;;;12.57;54.92;100142.03;6039242;23;20578;-88
2022/12/28 06:01:45;;;;;;;9.40;5.00;;;;;;;12.57;54.90;100148.16;6014390;23;20251;-87
2022/12/28 06:04:16;;;;;;;10.27;5.03;;;;;;;12.63;55.05;100154.91;6039285;23;20164;-87
2022/12/28 06:06:42;;;;;;;13.00;5.53;;;;;;;12.69;54.93;100158.09;6039226;23;20652;-88
2022/12/28 06:09:12;;;;;;;12.63;5.53;;;;;;;12.68;55.03;100156.38;6039632;23;20157;-88
2022/12/28 06:11:45;;;;;;;11.60;5.10;;;;;;;12.68;55.36;100159.03;6038505;23;20190;-87
2022/12/28 06:14:16;;;;;;;16.43;6.10;;;;;;;12.68;55.58;100155.56;6013046;23;20183;-87
2022/12/28 06:16:50;;;;;;;13.80;5.67;;;;;;;12.62;55.70;100159.31;6040994;23;20273;-88
2022/12/28 06:19:17;;;;;;;17.47;7.10;;;;;;;12.61;55.54;100165.50;6041122;23;20628;-88
2022/12/28 06:21:49;;;;;;;15.00;6.57;;;;;;;12.61;55.51;100176.00;6016304;23;20174;-88
2022/12/28 06:24:18;;;;;;;13.53;6.23;;;;;;;12.64;55.62;100175.88;6041337;23;20156;-88
2022/12/28 06:26:53;;;;;;;15.43;6.67;;;;;;;12.68;55.58;100176.59;6015761;23;20271;-88
2022/12/28 06:29:43;;;;;;;13.90;5.53;;;;;;;12.70;55.64;100185.28;6040565;23;20176;-88
2022/12/28 06:32:09;;;;;;;17.73;6.70;;;;;;;12.71;55.43;100185.19;5927555;24;20653;-88
2022/12/28 06:34:36;;;;;;;14.53;5.87;;;;;;;12.73;55.73;100191.28;5927457;24;20162;-87
2022/12/28 06:37:03;;;;;;;13.20;6.57;;;;;;;12.77;55.52;100199.84;5991608;23;20488;-88
2022/12/28 06:39:28;;;;;;;13.00;6.00;;;;;;;12.76;55.29;100200.81;6015385;23;20208;-87
2022/12/28 06:41:53;;;;;;;13.90;6.37;;;;;;;12.76;55.36;100201.63;6041481;23;20157;-88
2022/12/28 06:44:21;;;;;;;13.20;6.23;;;;;;;12.81;55.17;100201.44;6040885;23;20234;-88
2022/12/28 06:46:48;;;;;;;16.03;6.33;;;;;;;12.81;55.06;100198.81;6041232;23;20155;-88
2022/12/28 06:49:15;;;;;;;17.30;7.40;;;;;;;12.78;55.15;100201.56;6041513;23;20153;-87
2022/12/28 06:51:41;;;;;;;43.63;10.93;;;;;;;12.74;55.70;100208.75;6038510;23;20200;-88
2022/12/28 06:54:10;;;;;;;20.87;8.40;;;;;;;12.70;55.73;100212.44;6041423;23;20222;-88
2022/12/28 06:56:44;;;;;;;48.27;12.97;;;;;;;12.66;56.48;100216.13;6041400;23;20160;-87
2022/12/28 06:59:11;;;;;;;25.80;8.87;;;;;;;12.70;56.05;100211.59;6041094;23;20145;-88
2022/12/28 07:01:47;;;;;;;18.07;7.17;;;;;;;12.72;56.06;100215.84;6015983;23;20607;-88
2022/12/28 07:04:13;;;;;;;21.27;8.27;;;;;;;12.75;56.34;100217.50;6041260;23;20525;-88
2022/12/28 07:06:43;;;;;;;21.70;8.33;;;;;;;12.73;56.72;100209.69;6015663;23;20165;-88
2022/12/28 07:09:15;;;;;;;30.10;10.30;;;;;;;12.80;56.79;100213.75;6040693;23;20161;-89
2022/12/28 07:12:05;;;;;;;35.13;8.80;;;;;;;12.80;56.61;100219.00;6014866;23;20271;-89
2022/12/28 07:14:31;;;;;;;23.13;9.23;;;;;;;12.83;57.21;100218.88;5925244;24;20570;-88
2022/12/28 07:17:04;;;;;;;17.63;7.23;;;;;;;12.86;56.80;100218.75;5902645;24;20175;-88
2022/12/28 07:19:39;;;;;;;19.27;8.33;;;;;;;12.89;56.83;100215.13;5902594;24;20245;-88
2022/12/28 07:22:11;;;;;;;18.30;7.07;;;;;;;12.93;57.06;100220.16;5926083;24;20598;-88
2022/12/28 07:24:39;;;;;;;20.80;7.30;;;;;;;13.01;56.36;100221.59;5925894;24;20167;-88
2022/12/28 07:27:09;;;;;;;12.87;5.50;;;;;;;13.03;56.35;100220.59;5924899;24;20148;-89
2022/12/28 07:29:35;;;;;;;39.17;16.00;;;;;;;13.08;55.94;100221.28;5923928;24;20256;-88
2022/12/28 07:32:00;;;;;;;79.87;27.37;;;;;;;13.06;56.18;100215.19;5923388;24;20672;-88
2022/12/28 07:34:26;;;;;;;68.57;25.93;;;;;;;13.11;55.80;100220.28;5923717;24;20174;-88
2022/12/28 07:36:54;;;;;;;53.83;21.97;;;;;;;13.10;55.90;100218.59;5900629;24;20251;-88
2022/12/28 07:39:19;;;;;;;55.40;19.23;;;;;;;13.10;56.68;100216.78;6016436;23;20175;-88
2022/12/28 07:41:51;;;;;;;50.63;17.40;;;;;;;13.11;56.90;100217.66;6012534;23;20165;-88
2022/12/28 07:44:19;;;;;;;48.00;19.90;;;;;;;13.09;56.98;100215.09;6015724;23;20618;-88
2022/12/28 07:46:48;;;;;;;64.17;22.13;;;;;;;13.05;56.74;100217.91;6040682;23;20213;-88
2022/12/28 07:49:16;;;;;;;45.87;17.43;;;;;;;13.09;57.26;100219.50;6040051;23;20641;-88
2022/12/28 07:51:48;;;;;;;43.57;16.50;;;;;;;13.14;57.18;100217.50;6040865;23;20157;-88
2022/12/28 07:54:16;;;;;;;24.37;9.83;;;;;;;13.19;56.93;100221.66;6015727;23;20567;-88
2022/12/28 07:56:47;;;;;;;23.17;9.77;;;;;;;13.22;56.72;100221.50;6015366;23;20498;-89
2022/12/28 07:59:13;;;;;;;28.70;12.87;;;;;;;13.26;56.67;100219.59;6040712;23;20470;-88
2022/12/28 08:01:44;;;;;;;23.23;11.67;;;;;;;13.29;56.26;100219.44;6015612;23;20168;-88
2022/12/28 08:04:13;;;;;;;21.97;10.40;;;;;;;13.37;56.36;100225.19;6039749;23;20146;-88
2022/12/28 08:06:42;;;;;;;22.07;9.93;;;;;;;13.40;56.04;100225.91;6038797;23;20240;-90
2022/12/28 08:09:10;;;;;;;16.37;9.27;;;;;;;13.43;56.00;100224.91;6013906;23;20160;-89
2022/12/28 08:11:38;;;;;;;19.20;8.60;;;;;;;13.46;56.24;100230.03;6039852;23;20216;-89
2022/12/28 08:14:05;;;;;;;16.23;8.03;;;;;;;13.49;56.29;100235.19;6013962;23;20204;-90
2022/12/28 08:16:35;;;;;;;17.10;7.67;;;;;;;13.52;56.10;100229.78;6038651;23;20158;-89
2022/12/28 08:19:02;;;;;;;12.57;6.33;;;;;;;13.57;56.38;100232.19;6013901;23;20149;-90
2022/12/28 08:21:32;;;;;;;12.20;5.73;;;;;;;13.57;55.91;100227.75;6014015;23;20571;-90
2022/12/28 08:23:58;;;;;;;14.57;6.70;;;;;;;13.50;55.59;100229.81;6013977;23;20172;-90
2022/12/28 08:26:32;;;;;;;18.20;7.10;;;;;;;13.53;55.71;100226.19;6037861;23;20158;-90
2022/12/28 08:29:00;;;;;;;16.23;8.77;;;;;;;13.55;55.68;100219.91;6013968;23;20279;-90
2022/12/28 08:31:32;;;;;;;12.63;6.43;;;;;;;13.59;55.51;100225.91;6014010;23;20164;-90
2022/12/28 08:33:59;;;;;;;9.53;5.47;;;;;;;13.72;54.89;100229.66;6038862;23;20165;-90
2022/12/28 08:36:25;;;;;;;18.93;6.37;;;;;;;13.74;55.31;100238.34;6038931;23;20530;-89
2022/12/28 08:38:51;;;;;;;10.57;5.10;;;;;;;13.76;55.27;100239.13;6014070;23;20168;-90
2022/12/28 08:41:19;;;;;;;14.50;7.47;;;;;;;13.72;54.84;100237.56;6013402;23;20164;-89
2022/12/28 08:43:46;;;;;;;12.87;6.17;;;;;;;13.82;54.27;100245.88;6013432;23;20225;-90
2022/12/28 08:46:26;;;;;;;13.87;7.57;;;;;;;13.84;54.26;100251.91;6038621;23;20164;-90
2022/12/28 08:48:54;;;;;;;14.53;6.50;;;;;;;13.89;54.00;100261.31;6034164;23;20589;-90
2022/12/28 08:51:25;;;;;;;14.30;6.57;;;;;;;13.90;53.81;100263.03;6038469;23;20169;-90
2022/12/28 08:53:53;;;;;;;13.90;6.73;;;;;;;13.97;53.56;100269.72;6038352;23;20241;-89
2022/12/28 08:56:23;;;;;;;10.17;5.27;;;;;;;13.99;53.49;100261.75;6038270;23;20165;-90
2022/12/28 08:58:50;;;;;;;14.03;5.93;;;;;;;13.93;53.82;100262.91;6013972;23;20240;-90
2022/12/28 09:01:34;;;;;;;14.03;7.30;;;;;;;13.77;54.33;100255.78;6015012;23;20153;-89
2022/12/28 09:04:02;;;;;;;15.10;7.03;;;;;;;13.81;54.63;100258.19;6014667;23;20155;-90
2022/12/28 09:06:35;;;;;;;14.20;7.23;;;;;;;13.84;54.91;100252.78;6039365;23;20240;-89
2022/12/28 09:09:05;;;;;;;19.90;8.53;;;;;;;13.93;54.33;100262.03;6039094;23;20225;-90
2022/12/28 09:11:34;;;;;;;15.10;7.37;;;;;;;14.06;53.72;100265.78;6014570;23;20204;-89
2022/12/28 09:14:02;;;;;;;13.33;6.00;;;;;;;14.05;53.94;100267.56;5991257;23;20196;-90
2022/12/28 09:16:28;;;;;;;14.93;7.57;;;;;;;14.06;53.96;100261.38;6014662;23;20248;-90
2022/12/28 09:18:59;;;;;;;15.23;7.27;;;;;;;14.11;53.66;100262.00;6014695;23;20158;-89
2022/12/28 09:21:30;;;;;;;13.47;5.60;;;;;;;14.15;53.41;100257.41;6039796;23;20157;-89
2022/12/28 09:23:56;;;;;;;11.90;6.07;;;;;;;14.15;53.22;100255.63;6014864;23;20138;-90
2022/12/28 09:26:28;;;;;;;15.00;6.40;;;;;;;14.18;53.28;100253.78;6039992;23;20181;-90
2022/12/28 09:28:57;;;;;;;14.13;6.57;;;;;;;14.17;53.18;100237.13;6039810;23;20142;-90
2022/12/28 09:31:26;;;;;;;17.67;6.93;;;;;;;14.18;53.06;100237.03;6039184;23;20173;-89
2022/12/28 09:33:59;;;;;;;12.57;5.53;;;;;;;14.28;52.04;100233.94;6014465;23;20201;-89
2022/12/28 09:36:46;;;;;;;10.17;5.23;;;;;;;14.29;51.41;100233.84;6039731;23;20473;-90
2022/12/28 09:39:18;;;;;;;18.30;8.60;;;;;;;14.32;51.31;100222.31;6039089;23;20249;-90
2022/12/28 09:42:17;;;;;;;19.63;9.03;;;;;;;14.35;50.80;100219.53;6039787;23;20213;-90
2022/12/28 09:45:04;;;;;;;15.43;8.27;;;;;;;14.37;50.95;100222.94;6039363;23;20138;-89
2022/12/28 09:47:54;;;;;;;15.70;7.43;;;;;;;14.36;50.34;100219.44;6014372;23;20492;-90
2022/12/28 09:50:30;;;;;;;14.23;6.00;;;;;;;14.30;50.38;100229.44;6041784;23;20150;-89
2022/12/28 09:53:31;;;;;;;21.80;7.53;;;;;;;14.20;50.08;100244.00;6042888;23;20168;-89
2022/12/28 09:56:16;;;;;;;13.43;5.77;;;;;;;14.16;50.12;100238.88;6042525;23;20157;-90
2022/12/28 09:58:43;;;;;;;7.67;3.80;;;;;;;14.07;50.68;100235.88;6017991;23;20233;-89
2022/12/28 10:01:17;;;;;;;9.37;4.17;;;;;;;13.98;51.25;100229.25;6041137;23;20481;-89
2022/12/28 10:03:46;;;;;;;7.43;3.43;;;;;;;14.01;51.64;100225.63;6043224;23;20228;-89
2022/12/28 10:06:24;;;;;;;8.40;3.70;;;;;;;14.00;52.14;100222.13;6042367;23;20149;-89
2022/12/28 10:08:59;;;;;;;12.87;4.43;;;;;;;14.03;52.10;100205.28;6017897;23;20232;-89
2022/12/28 10:11:39;;;;;;;11.73;4.47;;;;;;;14.09;51.94;100205.00;6042498;23;20200;-90
2022/12/28 10:14:34;;;;;;;7.80;4.13;;;;;;;14.07;51.93;100202.41;6017568;23;20189;-89
2022/12/28 10:17:06;;;;;;;10.37;4.43;;;;;;;14.11;51.91;100204.00;6031681;23;20263;-89
2022/12/28 10:19:33;;;;;;;8.83;4.33;;;;;;;14.16;51.40;100209.88;6017650;23;20137;-89
2022/12/28 10:22:07;;;;;;;7.40;4.43;;;;;;;14.24;50.67;100203.34;6042513;23;20167;-89
2022/12/28 10:24:34;;;;;;;9.97;4.60;;;;;;;14.25;50.44;100215.63;6040639;23;20244;-89
2022/12/28 10:27:05;;;;;;;11.77;4.73;;;;;;;14.20;50.14;100210.59;6040918;23;20227;-89
2022/12/28 10:29:34;;;;;;;8.70;3.53;;;;;;;14.33;49.19;100219.63;6041654;23;20160;-89
2022/12/28 10:32:08;;;;;;;10.23;5.27;;;;;;;14.16;49.02;100217.78;6017385;23;20237;-89
2022/12/28 10:34:36;;;;;;;9.20;4.47;;;;;;;14.14;49.39;100213.53;6042381;23;20153;-89
2022/12/28 10:37:16;;;;;;;11.33;4.80;;;;;;;14.27;49.60;100214.63;6042780;23;20153;-90
2022/12/28 10:39:53;;;;;;;8.87;4.17;;;;;;;14.38;49.05;100209.69;6042764;23;20161;-89
2022/12/28 10:42:24;;;;;;;8.83;4.53;;;;;;;14.34;48.93;100208.13;6042102;23;20197;-89
2022/12/28 10:44:56;;;;;;;9.47;4.47;;;;;;;14.40;48.79;100201.69;6042404;23;20146;-89
2022/12/28 10:47:29;;;;;;;9.13;4.63;;;;;;;14.27;48.41;100190.03;6042476;23;20142;-89
2022/12/28 10:49:59;;;;;;;14.40;4.47;;;;;;;14.16;48.61;100199.34;6042993;23;20141;-89
2022/12/28 10:52:27;;;;;;;7.37;3.40;;;;;;;13.91;49.25;100196.22;6041525;23;20241;-88
2022/12/28 10:54:53;;;;;;;8.73;3.70;;;;;;;13.82;50.08;100201.94;6042003;23;20637;-89
2022/12/28 10:57:29;;;;;;;6.20;2.83;;;;;;;14.12;49.96;100199.56;6042153;23;20188;-89
2022/12/28 11:00:26;;;;;;;5.97;2.53;;;;;;;13.93;50.85;100199.63;6041293;23;20657;-89
2022/12/28 11:02:56;;;;;;;4.67;2.50;;;;;;;13.53;52.31;100205.13;6016667;23;20180;-90
2022/12/28 11:05:24;;;;;;;5.47;2.70;;;;;;;13.79;52.37;100199.44;6040447;23;20154;-89
2022/12/28 11:08:06;;;;;;;6.43;3.20;;;;;;;13.77;52.30;100195.19;6040399;23;20154;-90
2022/12/28 11:10:32;;;;;;;5.93;2.30;;;;;;;13.99;52.41;100203.75;6040415;23;20328;-89
2022/12/28 11:13:00;;;;;;;5.77;2.40;;;;;;;14.20;51.55;100188.63;6040811;23;20167;-90
2022/12/28 11:15:32;;;;;;;5.80;2.23;;;;;;;14.35;51.21;100195.78;6040294;23;20177;-89
2022/12/28 11:18:20;;;;;;;5.37;2.40;;;;;;;14.18;51.71;100185.22;6039938;23;20233;-89
2022/12/28 11:20:51;;;;;;;4.17;2.10;;;;;;;14.33;51.28;100187.97;6040188;23;20151;-89
2022/12/28 11:23:30;;;;;;;4.73;2.57;;;;;;;14.54;50.83;100186.00;5992351;23;20158;-89
2022/12/28 11:25:58;;;;;;;3.43;1.80;;;;;;;14.53;50.55;100189.56;6040086;23;20197;-90
2022/12/28 11:28:24;;;;;;;8.57;2.90;;;;;;;14.63;50.26;100182.88;6040621;23;20154;-88
2022/12/28 11:30:52;;;;;;;7.27;3.03;;;;;;;14.66;50.41;100180.09;6015569;23;20203;-89
2022/12/28 11:33:41;;;;;;;6.53;3.10;;;;;;;14.67;50.23;100177.34;6040744;23;20180;-89
2022/12/28 11:36:15;;;;;;;7.40;2.17;;;;;;;14.69;50.56;100164.09;6040023;23;20156;-90
2022/12/28 11:38:51;;;;;;;7.07;3.10;;;;;;;14.64;49.77;100164.34;6040660;23;20524;-89
2022/12/28 11:41:27;;;;;;;7.07;2.80;;;;;;;14.42;50.14;100168.16;6014844;23;20153;-88
2022/12/28 11:43:54;;;;;;;4.50;2.47;;;;;;;14.24;50.80;100166.44;6038058;23;20290;-89
2022/12/28 11:46:19;;;;;;;8.30;3.40;;;;;;;14.40;50.70;100167.41;6038052;23;20154;-89
2022/12/28 11:48:54;;;;;;;12.33;3.80;;;;;;;14.71;49.44;100162.22;6038122;23;20160;-88
2022/12/28 11:51:26;;;;;;;10.80;4.40;;;;;;;14.40;49.25;100162.13;6037945;23;20228;-88
2022/12/28 11:54:02;;;;;;;8.90;5.43;;;;;;;14.32;49.84;100159.03;6038229;23;20176;-87
2022/12/28 11:56:43;;;;;;;10.63;4.30;;;;;;;14.76;49.66;100160.19;6037967;23;20179;-89
2022/12/28 11:59:26;;;;;;;19.30;6.47;;;;;;;15.14;48.68;100160.75;6040302;23;20159;-88
2022/12/28 12:01:56;;;;;;;4.80;2.10;;;;;;;15.28;48.16;100159.06;6040508;23;20150;-89
2022/12/28 12:04:37;;;;;;;9.53;3.00;;;;;;;15.12;47.79;100166.09;6039610;23;20138;-89
2022/12/28 12:07:03;;;;;;;7.33;2.37;;;;;;;14.74;48.90;100165.56;6040518;23;20141;-90
2022/12/28 12:09:37;;;;;;;7.13;2.17;;;;;;;15.05;48.73;100161.25;6040233;23;20577;-90
2022/12/28 12:12:28;;;;;;;5.33;1.87;;;;;;;15.32;47.87;100155.31;6039872;23;20167;-89
2022/12/28 12:15:00;;;;;;;4.60;2.20;;;;;;;15.14;48.41;100168.69;6024720;23;20239;-89